sensor_id;sensor_type;location;lat;lon;timestamp;P1;durP1;ratioP1;P2;durP2;ratioP2
76708;SDS011;74360;44.410;0.216;2023-12-28T00:04:03;18.00;;;11.93;;
76708;SDS011;74360;44.410;0.216;2023-12-28T00:09:36;17.17;;;9.80;;
76708;SDS011;74360;44.410;0.216;2023-12-28T00:15:09;21.07;;;13.20;;
76708;SDS011;74360;44.410;0.216;2023-12-28T00:20:42;19.50;;;12.13;;
76708;SDS011;74360;44.410;0.216;2023-12-28T00:26:14;28.20;;;14.57;;
76708;SDS011;74360;44.410;0.216;2023-12-28T00:31:47;24.70;;;14.53;;
76708;SDS011;74360;44.410;0.216;2023-12-28T00:37:20;23.40;;;12.77;;
76708;SDS011;74360;44.410;0.216;2023-12-28T00:42:52;24.80;;;13.30;;
76708;SDS011;74360;44.410;0.216;2023-12-28T00:48:24;24.23;;;11.33;;
76708;SDS011;74360;44.410;0.216;2023-12-28T00:53:57;21.50;;;13.03;;
76708;SDS011;74360;44.410;0.216;2023-12-28T00:59:30;26.97;;;15.03;;
76708;SDS011;74360;44.410;0.216;2023-12-28T01:05:04;22.93;;;14.43;;
76708;SDS011;74360;44.410;0.216;2023-12-28T01:10:36;24.57;;;12.10;;
76708;SDS011;74360;44.410;0.216;2023-12-28T01:16:09;27.33;;;14.67;;
76708;SDS011;74360;44.410;0.216;2023-12-28T01:21:43;19.97;;;12.83;;
76708;SDS011;74360;44.410;0.216;2023-12-28T01:27:15;20.73;;;12.97;;
76708;SDS011;74360;44.410;0.216;2023-12-28T01:38:22;27.37;;;14.80;;
76708;SDS011;74360;44.410;0.216;2023-12-28T01:43:56;22.33;;;12.93;;
76708;SDS011;74360;44.410;0.216;2023-12-28T01:49:29;24.37;;;13.53;;
76708;SDS011;74360;44.410;0.216;2023-12-28T01:55:02;22.07;;;13.30;;
76708;SDS011;74360;44.410;0.216;2023-12-28T02:00:37;22.83;;;10.47;;
76708;SDS011;74360;44.410;0.216;2023-12-28T02:06:06;19.10;;;11.10;;
76708;SDS011;74360;44.410;0.216;2023-12-28T02:11:40;19.87;;;11.73;;
76708;SDS011;74360;44.410;0.216;2023-12-28T02:17:13;17.63;;;10.97;;
76708;SDS011;74360;44.410;0.216;2023-12-28T02:22:45;22.67;;;12.10;;
76708;SDS011;74360;44.410;0.216;2023-12-28T02:28:17;20.17;;;12.43;;
76708;SDS011;74360;44.410;0.216;2023-12-28T02:33:50;24.13;;;13.50;;
76708;SDS011;74360;44.410;0.216;2023-12-28T02:39:23;23.13;;;13.77;;
76708;SDS011;74360;44.410;0.216;2023-12-28T02:44:55;23.70;;;12.37;;
76708;SDS011;74360;44.410;0.216;2023-12-28T02:50:30;23.17;;;13.57;;
76708;SDS011;74360;44.410;0.216;2023-12-28T02:56:01;23.63;;;13.60;;
76708;SDS011;74360;44.410;0.216;2023-12-28T03:01:35;20.63;;;11.77;;
76708;SDS011;74360;44.410;0.216;2023-12-28T03:07:08;22.97;;;11.03;;
76708;SDS011;74360;44.410;0.216;2023-12-28T03:12:40;19.77;;;11.50;;
76708;SDS011;74360;44.410;0.216;2023-12-28T03:18:12;18.70;;;9.83;;
76708;SDS011;74360;44.410;0.216;2023-12-28T03:23:44;22.50;;;11.67;;
76708;SDS011;74360;44.410;0.216;2023-12-28T03:34:51;21.10;;;10.80;;
76708;SDS011;74360;44.410;0.216;2023-12-28T03:40:24;18.07;;;10.83;;
76708;SDS011;74360;44.410;0.216;2023-12-28T03:45:57;17.33;;;9.07;;
76708;SDS011;74360;44.410;0.216;2023-12-28T03:51:29;19.33;;;11.23;;
76708;SDS011;74360;44.410;0.216;2023-12-28T03:57:01;18.80;;;10.40;;
76708;SDS011;74360;44.410;0.216;2023-12-28T04:08:08;17.90;;;10.87;;
76708;SDS011;74360;44.410;0.216;2023-12-28T04:13:40;18.17;;;10.97;;
76708;SDS011;74360;44.410;0.216;2023-12-28T04:19:12;18.30;;;11.93;;
76708;SDS011;74360;44.410;0.216;2023-12-28T04:24:44;18.23;;;9.97;;
76708;SDS011;74360;44.410;0.216;2023-12-28T04:30:15;23.23;;;12.53;;
76708;SDS011;74360;44.410;0.216;2023-12-28T04:35:47;16.77;;;10.97;;
76708;SDS011;74360;44.410;0.216;2023-12-28T04:41:21;18.10;;;11.03;;
76708;SDS011;74360;44.410;0.216;2023-12-28T04:52:25;19.87;;;11.40;;
76708;SDS011;74360;44.410;0.216;2023-12-28T04:57:58;22.30;;;11.53;;
76708;SDS011;74360;44.410;0.216;2023-12-28T05:03:32;19.00;;;11.47;;
76708;SDS011;74360;44.410;0.216;2023-12-28T05:09:04;17.67;;;11.20;;
76708;SDS011;74360;44.410;0.216;2023-12-28T05:14:36;18.50;;;10.73;;
76708;SDS011;74360;44.410;0.216;2023-12-28T05:20:08;16.67;;;11.00;;
76708;SDS011;74360;44.410;0.216;2023-12-28T05:25:41;19.23;;;10.40;;
76708;SDS011;74360;44.410;0.216;2023-12-28T05:31:14;20.17;;;10.60;;
76708;SDS011;74360;44.410;0.216;2023-12-28T05:36:46;19.77;;;11.73;;
76708;SDS011;74360;44.410;0.216;2023-12-28T05:42:18;15.70;;;9.67;;
76708;SDS011;74360;44.410;0.216;2023-12-28T05:47:51;24.87;;;10.00;;
76708;SDS011;74360;44.410;0.216;2023-12-28T05:53:24;17.03;;;10.37;;
76708;SDS011;74360;44.410;0.216;2023-12-28T05:58:56;18.87;;;10.00;;
76708;SDS011;74360;44.410;0.216;2023-12-28T06:04:30;15.63;;;10.03;;
76708;SDS011;74360;44.410;0.216;2023-12-28T06:10:03;20.90;;;9.33;;
76708;SDS011;74360;44.410;0.216;2023-12-28T06:15:36;18.87;;;9.33;;
76708;SDS011;74360;44.410;0.216;2023-12-28T06:21:09;16.17;;;8.67;;
76708;SDS011;74360;44.410;0.216;2023-12-28T06:26:42;16.57;;;8.93;;
76708;SDS011;74360;44.410;0.216;2023-12-28T06:32:14;17.27;;;9.73;;
76708;SDS011;74360;44.410;0.216;2023-12-28T06:37:47;15.63;;;9.03;;
76708;SDS011;74360;44.410;0.216;2023-12-28T06:43:19;16.03;;;9.93;;
76708;SDS011;74360;44.410;0.216;2023-12-28T06:48:52;17.37;;;10.33;;
76708;SDS011;74360;44.410;0.216;2023-12-28T06:54:25;16.23;;;9.63;;
76708;SDS011;74360;44.410;0.216;2023-12-28T06:59:58;20.47;;;9.17;;
76708;SDS011;74360;44.410;0.216;2023-12-28T07:05:29;14.23;;;8.53;;
76708;SDS011;74360;44.410;0.216;2023-12-28T07:11:02;16.97;;;8.97;;
76708;SDS011;74360;44.410;0.216;2023-12-28T07:16:35;15.23;;;9.50;;
76708;SDS011;74360;44.410;0.216;2023-12-28T07:22:08;24.13;;;12.30;;
76708;SDS011;74360;44.410;0.216;2023-12-28T07:27:39;17.87;;;10.07;;
76708;SDS011;74360;44.410;0.216;2023-12-28T07:33:12;19.90;;;10.93;;
76708;SDS011;74360;44.410;0.216;2023-12-28T07:38:45;20.10;;;10.67;;
76708;SDS011;74360;44.410;0.216;2023-12-28T07:44:18;18.93;;;11.07;;
76708;SDS011;74360;44.410;0.216;2023-12-28T07:49:50;17.70;;;9.93;;
76708;SDS011;74360;44.410;0.216;2023-12-28T07:55:22;20.77;;;12.63;;
76708;SDS011;74360;44.410;0.216;2023-12-28T08:00:55;20.17;;;10.33;;
76708;SDS011;74360;44.410;0.216;2023-12-28T08:06:29;14.90;;;9.57;;
76708;SDS011;74360;44.410;0.216;2023-12-28T08:12:03;16.10;;;10.30;;
76708;SDS011;74360;44.410;0.216;2023-12-28T08:17:34;19.07;;;9.87;;
76708;SDS011;74360;44.410;0.216;2023-12-28T08:23:06;15.53;;;9.17;;
76708;SDS011;74360;44.410;0.216;2023-12-28T08:28:39;16.13;;;8.67;;
76708;SDS011;74360;44.410;0.216;2023-12-28T08:39:43;15.83;;;8.30;;
76708;SDS011;74360;44.410;0.216;2023-12-28T08:45:15;14.23;;;8.33;;
76708;SDS011;74360;44.410;0.216;2023-12-28T08:50:48;15.10;;;7.87;;
76708;SDS011;74360;44.410;0.216;2023-12-28T08:56:21;13.33;;;8.80;;
76708;SDS011;74360;44.410;0.216;2023-12-28T09:01:54;15.93;;;8.63;;
76708;SDS011;74360;44.410;0.216;2023-12-28T09:07:27;14.67;;;8.63;;
76708;SDS011;74360;44.410;0.216;2023-12-28T09:13:03;15.37;;;8.37;;
76708;SDS011;74360;44.410;0.216;2023-12-28T09:18:33;15.63;;;7.83;;
76708;SDS011;74360;44.410;0.216;2023-12-28T09:24:05;17.20;;;8.90;;
76708;SDS011;74360;44.410;0.216;2023-12-28T09:29:38;16.33;;;8.50;;
76708;SDS011;74360;44.410;0.216;2023-12-28T09:35:11;14.43;;;7.93;;
76708;SDS011;74360;44.410;0.216;2023-12-28T09:40:43;17.77;;;8.20;;
76708;SDS011;74360;44.410;0.216;2023-12-28T09:46:15;14.13;;;8.23;;
76708;SDS011;74360;44.410;0.216;2023-12-28T09:51:48;16.23;;;8.13;;
76708;SDS011;74360;44.410;0.216;2023-12-28T09:57:20;15.30;;;8.23;;
76708;SDS011;74360;44.410;0.216;2023-12-28T10:02:53;15.40;;;8.03;;
76708;SDS011;74360;44.410;0.216;2023-12-28T10:08:26;14.50;;;8.53;;
76708;SDS011;74360;44.410;0.216;2023-12-28T10:14:00;16.33;;;8.60;;
76708;SDS011;74360;44.410;0.216;2023-12-28T10:19:32;19.43;;;9.30;;
76708;SDS011;74360;44.410;0.216;2023-12-28T10:25:05;15.90;;;8.83;;
76708;SDS011;74360;44.410;0.216;2023-12-28T10:30:39;12.80;;;8.43;;
76708;SDS011;74360;44.410;0.216;2023-12-28T10:36:11;10.07;;;5.60;;
76708;SDS011;74360;44.410;0.216;2023-12-28T10:41:44;10.67;;;5.47;;
76708;SDS011;74360;44.410;0.216;2023-12-28T10:47:16;10.60;;;5.43;;
76708;SDS011;74360;44.410;0.216;2023-12-28T10:52:50;11.07;;;5.20;;
76708;SDS011;74360;44.410;0.216;2023-12-28T10:58:27;9.27;;;4.40;;
76708;SDS011;74360;44.410;0.216;2023-12-28T11:03:57;11.10;;;5.07;;
76708;SDS011;74360;44.410;0.216;2023-12-28T11:09:27;10.30;;;5.73;;
76708;SDS011;74360;44.410;0.216;2023-12-28T11:14:59;11.63;;;5.40;;
76708;SDS011;74360;44.410;0.216;2023-12-28T11:20:31;11.33;;;5.93;;
76708;SDS011;74360;44.410;0.216;2023-12-28T11:31:37;22.40;;;8.87;;
76708;SDS011;74360;44.410;0.216;2023-12-28T11:37:12;19.27;;;9.20;;
76708;SDS011;74360;44.410;0.216;2023-12-28T11:42:51;12.20;;;5.33;;
76708;SDS011;74360;44.410;0.216;2023-12-28T11:48:22;10.60;;;4.27;;
76708;SDS011;74360;44.410;0.216;2023-12-28T11:53:48;11.40;;;5.47;;
76708;SDS011;74360;44.410;0.216;2023-12-28T11:59:21;12.90;;;5.57;;
76708;SDS011;74360;44.410;0.216;2023-12-28T12:04:54;12.73;;;7.07;;
76708;SDS011;74360;44.410;0.216;2023-12-28T12:10:26;10.40;;;5.83;;
76708;SDS011;74360;44.410;0.216;2023-12-28T12:15:57;12.17;;;4.60;;
76708;SDS011;74360;44.410;0.216;2023-12-28T12:21:32;13.10;;;6.40;;
76708;SDS011;74360;44.410;0.216;2023-12-28T12:27:04;10.03;;;5.17;;
76708;SDS011;74360;44.410;0.216;2023-12-28T12:32:39;11.07;;;6.07;;
76708;SDS011;74360;44.410;0.216;2023-12-28T12:38:11;13.47;;;7.60;;
76708;SDS011;74360;44.410;0.216;2023-12-28T12:43:43;10.90;;;6.63;;
76708;SDS011;74360;44.410;0.216;2023-12-28T12:49:17;10.00;;;5.40;;
76708;SDS011;74360;44.410;0.216;2023-12-28T12:54:52;10.93;;;6.30;;
76708;SDS011;74360;44.410;0.216;2023-12-28T13:00:20;15.53;;;8.27;;
76708;SDS011;74360;44.410;0.216;2023-12-28T13:05:53;11.27;;;6.60;;
76708;SDS011;74360;44.410;0.216;2023-12-28T13:11:26;13.53;;;7.47;;
76708;SDS011;74360;44.410;0.216;2023-12-28T13:17:00;13.40;;;7.17;;
76708;SDS011;74360;44.410;0.216;2023-12-28T13:22:33;11.83;;;6.60;;
76708;SDS011;74360;44.410;0.216;2023-12-28T13:28:06;10.33;;;6.27;;
76708;SDS011;74360;44.410;0.216;2023-12-28T13:33:40;10.50;;;5.43;;
76708;SDS011;74360;44.410;0.216;2023-12-28T13:39:15;9.77;;;4.70;;
76708;SDS011;74360;44.410;0.216;2023-12-28T13:44:45;11.67;;;4.13;;
76708;SDS011;74360;44.410;0.216;2023-12-28T13:50:18;10.03;;;4.67;;
76708;SDS011;74360;44.410;0.216;2023-12-28T13:55:51;10.40;;;5.47;;
76708;SDS011;74360;44.410;0.216;2023-12-28T14:01:24;11.97;;;5.97;;
76708;SDS011;74360;44.410;0.216;2023-12-28T14:06:57;13.70;;;5.90;;
76708;SDS011;74360;44.410;0.216;2023-12-28T14:12:29;11.47;;;5.00;;
76708;SDS011;74360;44.410;0.216;2023-12-28T14:18:05;14.87;;;4.93;;
76708;SDS011;74360;44.410;0.216;2023-12-28T14:23:36;9.83;;;5.20;;
76708;SDS011;74360;44.410;0.216;2023-12-28T14:29:08;13.73;;;5.40;;
76708;SDS011;74360;44.410;0.216;2023-12-28T14:34:39;11.73;;;5.40;;
76708;SDS011;74360;44.410;0.216;2023-12-28T14:40:12;11.80;;;5.93;;
76708;SDS011;74360;44.410;0.216;2023-12-28T14:45:48;13.37;;;6.33;;
76708;SDS011;74360;44.410;0.216;2023-12-28T14:51:19;13.77;;;7.57;;
76708;SDS011;74360;44.410;0.216;2023-12-28T14:56:52;13.07;;;6.87;;
76708;SDS011;74360;44.410;0.216;2023-12-28T15:02:27;12.50;;;6.50;;
76708;SDS011;74360;44.410;0.216;2023-12-28T15:07:58;12.33;;;5.97;;
76708;SDS011;74360;44.410;0.216;2023-12-28T15:13:32;12.03;;;6.80;;
76708;SDS011;74360;44.410;0.216;2023-12-28T15:19:04;10.27;;;5.60;;
76708;SDS011;74360;44.410;0.216;2023-12-28T15:24:36;13.93;;;6.60;;
76708;SDS011;74360;44.410;0.216;2023-12-28T15:30:09;11.47;;;6.43;;
76708;SDS011;74360;44.410;0.216;2023-12-28T15:35:42;11.13;;;6.37;;
76708;SDS011;74360;44.410;0.216;2023-12-28T15:41:15;12.70;;;6.40;;
76708;SDS011;74360;44.410;0.216;2023-12-28T15:46:48;15.53;;;7.60;;
76708;SDS011;74360;44.410;0.216;2023-12-28T15:52:21;16.47;;;10.97;;
76708;SDS011;74360;44.410;0.216;2023-12-28T15:57:53;26.17;;;16.43;;
76708;SDS011;74360;44.410;0.216;2023-12-28T16:03:27;24.87;;;14.63;;
76708;SDS011;74360;44.410;0.216;2023-12-28T16:09:00;17.93;;;11.07;;
76708;SDS011;74360;44.410;0.216;2023-12-28T16:14:32;12.93;;;8.27;;
76708;SDS011;74360;44.410;0.216;2023-12-28T16:20:05;15.70;;;8.30;;
76708;SDS011;74360;44.410;0.216;2023-12-28T16:25:38;24.23;;;14.43;;
76708;SDS011;74360;44.410;0.216;2023-12-28T16:31:10;20.17;;;9.77;;
76708;SDS011;74360;44.410;0.216;2023-12-28T16:36:42;17.20;;;10.33;;
76708;SDS011;74360;44.410;0.216;2023-12-28T16:42:15;15.03;;;9.63;;
76708;SDS011;74360;44.410;0.216;2023-12-28T16:47:46;18.63;;;10.73;;
76708;SDS011;74360;44.410;0.216;2023-12-28T16:53:20;18.07;;;10.73;;
76708;SDS011;74360;44.410;0.216;2023-12-28T16:58:53;19.27;;;10.47;;
76708;SDS011;74360;44.410;0.216;2023-12-28T17:04:28;20.93;;;10.60;;
76708;SDS011;74360;44.410;0.216;2023-12-28T17:10:03;16.37;;;11.33;;
76708;SDS011;74360;44.410;0.216;2023-12-28T17:15:36;18.47;;;11.10;;
76708;SDS011;74360;44.410;0.216;2023-12-28T17:21:09;21.57;;;12.03;;
76708;SDS011;74360;44.410;0.216;2023-12-28T17:26:42;20.70;;;10.70;;
76708;SDS011;74360;44.410;0.216;2023-12-28T17:32:12;21.07;;;13.20;;
76708;SDS011;74360;44.410;0.216;2023-12-28T17:37:44;21.43;;;12.87;;
76708;SDS011;74360;44.410;0.216;2023-12-28T17:43:18;22.20;;;13.80;;
76708;SDS011;74360;44.410;0.216;2023-12-28T17:48:49;17.70;;;10.43;;
76708;SDS011;74360;44.410;0.216;2023-12-28T17:54:22;16.43;;;10.00;;
76708;SDS011;74360;44.410;0.216;2023-12-28T17:59:54;18.30;;;9.57;;
76708;SDS011;74360;44.410;0.216;2023-12-28T18:05:26;31.43;;;15.53;;
76708;SDS011;74360;44.410;0.216;2023-12-28T18:11:00;44.37;;;19.73;;
76708;SDS011;74360;44.410;0.216;2023-12-28T18:16:32;28.30;;;13.87;;
76708;SDS011;74360;44.410;0.216;2023-12-28T18:22:05;21.20;;;10.73;;
76708;SDS011;74360;44.410;0.216;2023-12-28T18:27:38;22.20;;;12.67;;
76708;SDS011;74360;44.410;0.216;2023-12-28T18:33:11;21.23;;;10.33;;
76708;SDS011;74360;44.410;0.216;2023-12-28T18:38:46;17.33;;;9.90;;
76708;SDS011;74360;44.410;0.216;2023-12-28T18:44:16;16.53;;;10.53;;
76708;SDS011;74360;44.410;0.216;2023-12-28T18:49:50;17.83;;;10.90;;
76708;SDS011;74360;44.410;0.216;2023-12-28T18:55:23;20.47;;;12.83;;
76708;SDS011;74360;44.410;0.216;2023-12-28T19:00:55;25.60;;;14.87;;
76708;SDS011;74360;44.410;0.216;2023-12-28T19:06:28;19.97;;;9.50;;
76708;SDS011;74360;44.410;0.216;2023-12-28T19:12:00;20.43;;;11.77;;
76708;SDS011;74360;44.410;0.216;2023-12-28T19:17:32;25.70;;;15.80;;
76708;SDS011;74360;44.410;0.216;2023-12-28T19:23:06;16.97;;;11.03;;
76708;SDS011;74360;44.410;0.216;2023-12-28T19:34:11;16.33;;;12.37;;
76708;SDS011;74360;44.410;0.216;2023-12-28T19:39:44;16.87;;;10.73;;
76708;SDS011;74360;44.410;0.216;2023-12-28T19:45:16;17.57;;;9.93;;
76708;SDS011;74360;44.410;0.216;2023-12-28T19:50:50;16.87;;;10.77;;
76708;SDS011;74360;44.410;0.216;2023-12-28T19:56:22;16.83;;;10.13;;
76708;SDS011;74360;44.410;0.216;2023-12-28T20:01:56;17.37;;;11.50;;
76708;SDS011;74360;44.410;0.216;2023-12-28T20:07:26;15.70;;;9.60;;
76708;SDS011;74360;44.410;0.216;2023-12-28T20:13:00;17.07;;;10.10;;
76708;SDS011;74360;44.410;0.216;2023-12-28T20:18:34;16.97;;;10.43;;
76708;SDS011;74360;44.410;0.216;2023-12-28T20:24:07;16.97;;;10.10;;
76708;SDS011;74360;44.410;0.216;2023-12-28T20:29:40;16.30;;;9.50;;
76708;SDS011;74360;44.410;0.216;2023-12-28T20:35:11;16.93;;;8.30;;
76708;SDS011;74360;44.410;0.216;2023-12-28T20:40:43;16.20;;;10.73;;
76708;SDS011;74360;44.410;0.216;2023-12-28T20:46:16;37.43;;;16.33;;
76708;SDS011;74360;44.410;0.216;2023-12-28T21:02:56;18.17;;;11.27;;
76708;SDS011;74360;44.410;0.216;2023-12-28T21:08:29;17.27;;;10.80;;
76708;SDS011;74360;44.410;0.216;2023-12-28T21:14:05;18.47;;;12.33;;
76708;SDS011;74360;44.410;0.216;2023-12-28T21:19:34;20.43;;;12.10;;
76708;SDS011;74360;44.410;0.216;2023-12-28T21:25:07;21.10;;;12.20;;
76708;SDS011;74360;44.410;0.216;2023-12-28T21:36:11;17.03;;;11.30;;
76708;SDS011;74360;44.410;0.216;2023-12-28T21:41:43;17.20;;;10.93;;
76708;SDS011;74360;44.410;0.216;2023-12-28T21:47:15;15.97;;;10.83;;
76708;SDS011;74360;44.410;0.216;2023-12-28T21:52:48;17.57;;;11.03;;
76708;SDS011;74360;44.410;0.216;2023-12-28T21:58:22;17.80;;;11.27;;
76708;SDS011;74360;44.410;0.216;2023-12-28T22:03:54;18.97;;;11.27;;
76708;SDS011;74360;44.410;0.216;2023-12-28T22:09:27;17.23;;;10.67;;
76708;SDS011;74360;44.410;0.216;2023-12-28T22:15:00;18.60;;;11.60;;
76708;SDS011;74360;44.410;0.216;2023-12-28T22:20:32;18.27;;;10.33;;
76708;SDS011;74360;44.410;0.216;2023-12-28T22:26:05;16.93;;;10.10;;
76708;SDS011;74360;44.410;0.216;2023-12-28T22:31:38;17.77;;;11.37;;
76708;SDS011;74360;44.410;0.216;2023-12-28T22:37:11;19.23;;;9.97;;
76708;SDS011;74360;44.410;0.216;2023-12-28T22:42:44;17.73;;;10.50;;
76708;SDS011;74360;44.410;0.216;2023-12-28T22:48:18;17.03;;;10.90;;
76708;SDS011;74360;44.410;0.216;2023-12-28T22:53:48;18.47;;;10.80;;
76708;SDS011;74360;44.410;0.216;2023-12-28T22:59:20;18.73;;;10.93;;
76708;SDS011;74360;44.410;0.216;2023-12-28T23:04:54;19.90;;;10.33;;
76708;SDS011;74360;44.410;0.216;2023-12-28T23:10:27;17.47;;;10.17;;
76708;SDS011;74360;44.410;0.216;2023-12-28T23:16:00;19.57;;;10.87;;
76708;SDS011;74360;44.410;0.216;2023-12-28T23:21:33;16.00;;;9.63;;
76708;SDS011;74360;44.410;0.216;2023-12-28T23:27:05;18.40;;;11.40;;
76708;SDS011;74360;44.410;0.216;2023-12-28T23:32:36;19.87;;;11.20;;
76708;SDS011;74360;44.410;0.216;2023-12-28T23:38:10;19.37;;;12.47;;
76708;SDS011;74360;44.410;0.216;2023-12-28T23:43:43;21.83;;;12.20;;
76708;SDS011;74360;44.410;0.216;2023-12-28T23:49:16;21.33;;;12.47;;
76708;SDS011;74360;44.410;0.216;2023-12-28T23:54:48;19.17;;;11.53;;
